sensor_id;sensor_type;location;lat;lon;timestamp;temperature;humidity
19252;DHT22;9760;50.944;5.304;2022-09-09T00:00:33;15.40;99.90
19252;DHT22;9760;50.944;5.304;2022-09-09T00:03:14;15.40;99.90
19252;DHT22;9760;50.944;5.304;2022-09-09T00:06:08;15.40;99.90
19252;DHT22;9760;50.944;5.304;2022-09-09T00:17:36;15.30;99.90
19252;DHT22;9760;50.944;5.304;2022-09-09T00:20:12;15.30;99.90
19252;DHT22;9760;50.944;5.304;2022-09-09T00:22:41;15.30;99.90
19252;DHT22;9760;50.944;5.304;2022-09-09T00:25:21;15.30;99.90
19252;DHT22;9760;50.944;5.304;2022-09-09T00:27:49;15.40;99.90
19252;DHT22;9760;50.944;5.304;2022-09-09T00:30:22;15.40;99.90
19252;DHT22;9760;50.944;5.304;2022-09-09T00:33:11;15.40;99.90
19252;DHT22;9760;50.944;5.304;2022-09-09T00:35:45;15.40;99.90
19252;DHT22;9760;50.944;5.304;2022-09-09T00:38:38;15.40;99.90
19252;DHT22;9760;50.944;5.304;2022-09-09T00:41:18;15.40;99.90
19252;DHT22;9760;50.944;5.304;2022-09-09T00:43:51;15.40;99.90
19252;DHT22;9760;50.944;5.304;2022-09-09T00:46:53;15.40;99.90
19252;DHT22;9760;50.944;5.304;2022-09-09T00:55:17;15.20;99.90
19252;DHT22;9760;50.944;5.304;2022-09-09T00:57:49;15.10;99.90
19252;DHT22;9760;50.944;5.304;2022-09-09T01:10:56;15.10;99.90
19252;DHT22;9760;50.944;5.304;2022-09-09T01:13:32;15.10;99.90
19252;DHT22;9760;50.944;5.304;2022-09-09T01:16:00;15.20;99.90
19252;DHT22;9760;50.944;5.304;2022-09-09T01:18:39;15.20;99.90
19252;DHT22;9760;50.944;5.304;2022-09-09T01:26:41;15.30;99.90
19252;DHT22;9760;50.944;5.304;2022-09-09T01:29:13;15.40;99.90
19252;DHT22;9760;50.944;5.304;2022-09-09T01:31:42;15.40;99.90
19252;DHT22;9760;50.944;5.304;2022-09-09T01:34:13;15.40;99.90
19252;DHT22;9760;50.944;5.304;2022-09-09T01:36:49;15.50;99.90
19252;DHT22;9760;50.944;5.304;2022-09-09T01:39:17;15.40;99.90
19252;DHT22;9760;50.944;5.304;2022-09-09T01:41:43;15.40;99.90
19252;DHT22;9760;50.944;5.304;2022-09-09T01:44:10;15.30;99.90
19252;DHT22;9760;50.944;5.304;2022-09-09T01:46:36;15.30;99.90
19252;DHT22;9760;50.944;5.304;2022-09-09T01:49:03;15.20;99.90
19252;DHT22;9760;50.944;5.304;2022-09-09T01:51:30;15.20;99.90
19252;DHT22;9760;50.944;5.304;2022-09-09T01:53:56;15.20;99.90
19252;DHT22;9760;50.944;5.304;2022-09-09T02:01:55;15.30;99.90
19252;DHT22;9760;50.944;5.304;2022-09-09T02:06:55;15.40;99.90
19252;DHT22;9760;50.944;5.304;2022-09-09T02:09:24;15.40;99.90
19252;DHT22;9760;50.944;5.304;2022-09-09T02:11:57;15.40;99.90
19252;DHT22;9760;50.944;5.304;2022-09-09T02:14:31;15.40;99.90
19252;DHT22;9760;50.944;5.304;2022-09-09T02:17:06;15.40;99.90
19252;DHT22;9760;50.944;5.304;2022-09-09T02:19:37;15.50;99.90
19252;DHT22;9760;50.944;5.304;2022-09-09T02:22:04;15.50;99.90
19252;DHT22;9760;50.944;5.304;2022-09-09T02:24:34;15.50;99.90
19252;DHT22;9760;50.944;5.304;2022-09-09T02:27:03;15.50;99.90
19252;DHT22;9760;50.944;5.304;2022-09-09T02:29:41;15.50;99.90
19252;DHT22;9760;50.944;5.304;2022-09-09T02:32:11;15.50;99.90
19252;DHT22;9760;50.944;5.304;2022-09-09T02:34:42;15.50;99.90
19252;DHT22;9760;50.944;5.304;2022-09-09T02:37:09;15.40;99.90
19252;DHT22;9760;50.944;5.304;2022-09-09T02:39:36;15.40;99.90
19252;DHT22;9760;50.944;5.304;2022-09-09T02:42:03;15.40;99.90
19252;DHT22;9760;50.944;5.304;2022-09-09T02:44:29;15.40;99.90
19252;DHT22;9760;50.944;5.304;2022-09-09T02:52:30;15.40;99.90
19252;DHT22;9760;50.944;5.304;2022-09-09T02:55:02;15.40;99.90
19252;DHT22;9760;50.944;5.304;2022-09-09T02:57:31;15.40;99.90
19252;DHT22;9760;50.944;5.304;2022-09-09T02:59:58;15.40;99.90
19252;DHT22;9760;50.944;5.304;2022-09-09T03:02:24;15.40;99.90
19252;DHT22;9760;50.944;5.304;2022-09-09T03:04:50;15.30;99.90
19252;DHT22;9760;50.944;5.304;2022-09-09T03:07:18;15.30;99.90
19252;DHT22;9760;50.944;5.304;2022-09-09T03:09:44;15.30;99.90
19252;DHT22;9760;50.944;5.304;2022-09-09T03:12:11;15.40;99.90
19252;DHT22;9760;50.944;5.304;2022-09-09T03:14:37;15.40;99.90
19252;DHT22;9760;50.944;5.304;2022-09-09T03:17:04;15.40;99.90
19252;DHT22;9760;50.944;5.304;2022-09-09T03:19:31;15.40;99.90
19252;DHT22;9760;50.944;5.304;2022-09-09T03:21:58;15.40;99.90
19252;DHT22;9760;50.944;5.304;2022-09-09T03:24:24;15.40;99.90
19252;DHT22;9760;50.944;5.304;2022-09-09T03:26:50;15.40;99.90
19252;DHT22;9760;50.944;5.304;2022-09-09T03:29:16;15.50;99.90
19252;DHT22;9760;50.944;5.304;2022-09-09T03:31:43;15.50;99.90
19252;DHT22;9760;50.944;5.304;2022-09-09T03:34:09;15.50;99.90
19252;DHT22;9760;50.944;5.304;2022-09-09T03:36:35;15.60;99.90
19252;DHT22;9760;50.944;5.304;2022-09-09T03:39:02;15.60;99.90
19252;DHT22;9760;50.944;5.304;2022-09-09T03:41:28;15.60;99.90
19252;DHT22;9760;50.944;5.304;2022-09-09T03:43:54;15.70;99.90
19252;DHT22;9760;50.944;5.304;2022-09-09T03:46:22;15.70;99.90
19252;DHT22;9760;50.944;5.304;2022-09-09T03:48:48;15.70;99.90
19252;DHT22;9760;50.944;5.304;2022-09-09T03:51:14;15.70;99.90
19252;DHT22;9760;50.944;5.304;2022-09-09T03:53:41;15.60;99.90
19252;DHT22;9760;50.944;5.304;2022-09-09T03:56:06;15.60;99.90
19252;DHT22;9760;50.944;5.304;2022-09-09T03:58:36;15.60;99.90
19252;DHT22;9760;50.944;5.304;2022-09-09T04:01:05;15.60;99.90
19252;DHT22;9760;50.944;5.304;2022-09-09T04:03:32;15.60;99.90
19252;DHT22;9760;50.944;5.304;2022-09-09T04:05:59;15.60;99.90
19252;DHT22;9760;50.944;5.304;2022-09-09T04:08:26;15.60;99.90
19252;DHT22;9760;50.944;5.304;2022-09-09T04:10:52;15.60;99.90
19252;DHT22;9760;50.944;5.304;2022-09-09T04:13:18;15.50;99.90
19252;DHT22;9760;50.944;5.304;2022-09-09T04:15:53;15.50;99.90
19252;DHT22;9760;50.944;5.304;2022-09-09T04:18:20;15.50;99.90
19252;DHT22;9760;50.944;5.304;2022-09-09T04:20:47;15.50;99.90
19252;DHT22;9760;50.944;5.304;2022-09-09T04:23:13;15.50;99.90
19252;DHT22;9760;50.944;5.304;2022-09-09T04:25:44;15.40;99.90
19252;DHT22;9760;50.944;5.304;2022-09-09T04:28:10;15.40;99.90
19252;DHT22;9760;50.944;5.304;2022-09-09T04:30:36;15.40;99.90
19252;DHT22;9760;50.944;5.304;2022-09-09T04:33:02;15.40;99.90
19252;DHT22;9760;50.944;5.304;2022-09-09T04:35:28;15.40;99.90
19252;DHT22;9760;50.944;5.304;2022-09-09T04:37:54;15.40;99.90
19252;DHT22;9760;50.944;5.304;2022-09-09T04:40:19;15.40;99.90
19252;DHT22;9760;50.944;5.304;2022-09-09T04:42:47;15.40;99.90
19252;DHT22;9760;50.944;5.304;2022-09-09T04:45:13;15.40;99.90
19252;DHT22;9760;50.944;5.304;2022-09-09T04:47:39;15.40;99.90
19252;DHT22;9760;50.944;5.304;2022-09-09T04:50:05;15.40;99.90
19252;DHT22;9760;50.944;5.304;2022-09-09T04:52:31;15.30;99.90
19252;DHT22;9760;50.944;5.304;2022-09-09T04:54:57;15.30;99.90
19252;DHT22;9760;50.944;5.304;2022-09-09T04:57:22;15.30;99.90
19252;DHT22;9760;50.944;5.304;2022-09-09T04:59:48;15.30;99.90
19252;DHT22;9760;50.944;5.304;2022-09-09T05:02:14;15.30;99.90
19252;DHT22;9760;50.944;5.304;2022-09-09T05:04:39;15.30;99.90
19252;DHT22;9760;50.944;5.304;2022-09-09T05:07:05;15.30;99.90
19252;DHT22;9760;50.944;5.304;2022-09-09T05:09:31;15.30;99.90
19252;DHT22;9760;50.944;5.304;2022-09-09T05:11:57;15.30;99.90
19252;DHT22;9760;50.944;5.304;2022-09-09T05:14:23;15.30;99.90
19252;DHT22;9760;50.944;5.304;2022-09-09T05:16:49;15.40;99.90
19252;DHT22;9760;50.944;5.304;2022-09-09T05:19:15;15.40;99.90
19252;DHT22;9760;50.944;5.304;2022-09-09T05:21:40;15.40;99.90
19252;DHT22;9760;50.944;5.304;2022-09-09T05:24:06;15.40;99.90
19252;DHT22;9760;50.944;5.304;2022-09-09T05:26:32;15.40;99.90
19252;DHT22;9760;50.944;5.304;2022-09-09T05:28:58;15.40;99.90
19252;DHT22;9760;50.944;5.304;2022-09-09T05:31:25;15.40;99.90
19252;DHT22;9760;50.944;5.304;2022-09-09T05:33:52;15.50;99.90
19252;DHT22;9760;50.944;5.304;2022-09-09T05:36:20;15.50;99.90
19252;DHT22;9760;50.944;5.304;2022-09-09T05:38:47;15.50;99.90
19252;DHT22;9760;50.944;5.304;2022-09-09T05:41:13;15.60;99.90
19252;DHT22;9760;50.944;5.304;2022-09-09T05:43:43;15.60;99.90
19252;DHT22;9760;50.944;5.304;2022-09-09T05:46:18;15.60;99.90
19252;DHT22;9760;50.944;5.304;2022-09-09T05:48:45;15.70;99.90
19252;DHT22;9760;50.944;5.304;2022-09-09T05:51:21;15.80;99.90
19252;DHT22;9760;50.944;5.304;2022-09-09T05:53:48;15.70;99.90
19252;DHT22;9760;50.944;5.304;2022-09-09T05:56:19;15.80;99.90
19252;DHT22;9760;50.944;5.304;2022-09-09T05:58:45;15.80;99.90
19252;DHT22;9760;50.944;5.304;2022-09-09T06:01:16;15.90;99.90
19252;DHT22;9760;50.944;5.304;2022-09-09T06:03:44;15.90;99.90
19252;DHT22;9760;50.944;5.304;2022-09-09T06:06:12;16.00;99.90
19252;DHT22;9760;50.944;5.304;2022-09-09T06:08:40;16.00;99.90
19252;DHT22;9760;50.944;5.304;2022-09-09T06:11:09;16.10;99.90
19252;DHT22;9760;50.944;5.304;2022-09-09T06:13:35;16.20;99.90
19252;DHT22;9760;50.944;5.304;2022-09-09T06:16:04;16.20;99.90
19252;DHT22;9760;50.944;5.304;2022-09-09T06:18:32;16.30;99.90
19252;DHT22;9760;50.944;5.304;2022-09-09T06:21:04;16.30;99.90
19252;DHT22;9760;50.944;5.304;2022-09-09T06:23:30;16.40;99.90
19252;DHT22;9760;50.944;5.304;2022-09-09T06:28:28;16.50;99.90
19252;DHT22;9760;50.944;5.304;2022-09-09T06:31:01;16.50;99.90
19252;DHT22;9760;50.944;5.304;2022-09-09T06:33:30;16.50;99.90
19252;DHT22;9760;50.944;5.304;2022-09-09T06:35:56;16.40;99.90
19252;DHT22;9760;50.944;5.304;2022-09-09T06:38:22;16.40;99.90
19252;DHT22;9760;50.944;5.304;2022-09-09T06:40:55;16.50;99.90
19252;DHT22;9760;50.944;5.304;2022-09-09T06:43:30;16.50;99.90
19252;DHT22;9760;50.944;5.304;2022-09-09T06:46:00;16.50;99.90
19252;DHT22;9760;50.944;5.304;2022-09-09T06:48:27;16.60;99.90
19252;DHT22;9760;50.944;5.304;2022-09-09T06:51:09;16.80;99.90
19252;DHT22;9760;50.944;5.304;2022-09-09T06:53:38;16.90;99.90
19252;DHT22;9760;50.944;5.304;2022-09-09T06:58:38;17.20;99.90
19252;DHT22;9760;50.944;5.304;2022-09-09T07:01:08;17.10;99.90
19252;DHT22;9760;50.944;5.304;2022-09-09T07:03:35;17.00;99.90
19252;DHT22;9760;50.944;5.304;2022-09-09T07:06:01;17.00;99.90
19252;DHT22;9760;50.944;5.304;2022-09-09T07:08:26;16.90;99.90
19252;DHT22;9760;50.944;5.304;2022-09-09T07:10:53;17.00;99.90
19252;DHT22;9760;50.944;5.304;2022-09-09T07:13:26;17.00;99.90
19252;DHT22;9760;50.944;5.304;2022-09-09T07:15:53;17.00;99.90
19252;DHT22;9760;50.944;5.304;2022-09-09T07:18:20;17.10;99.90
19252;DHT22;9760;50.944;5.304;2022-09-09T07:20:55;17.20;99.90
19252;DHT22;9760;50.944;5.304;2022-09-09T07:23:22;17.10;99.90
19252;DHT22;9760;50.944;5.304;2022-09-09T07:25:48;17.00;99.90
19252;DHT22;9760;50.944;5.304;2022-09-09T07:28:14;17.10;99.90
19252;DHT22;9760;50.944;5.304;2022-09-09T07:30:40;17.30;99.90
19252;DHT22;9760;50.944;5.304;2022-09-09T07:33:06;17.50;99.90
19252;DHT22;9760;50.944;5.304;2022-09-09T07:35:32;17.40;99.90
19252;DHT22;9760;50.944;5.304;2022-09-09T07:37:57;17.30;99.90
19252;DHT22;9760;50.944;5.304;2022-09-09T07:40:24;17.50;99.90
19252;DHT22;9760;50.944;5.304;2022-09-09T07:42:50;17.60;99.90
19252;DHT22;9760;50.944;5.304;2022-09-09T07:45:15;17.60;99.90
19252;DHT22;9760;50.944;5.304;2022-09-09T07:47:41;17.60;99.90
19252;DHT22;9760;50.944;5.304;2022-09-09T07:50:09;17.70;99.90
19252;DHT22;9760;50.944;5.304;2022-09-09T07:52:35;17.80;99.90
19252;DHT22;9760;50.944;5.304;2022-09-09T07:55:01;17.70;99.90
19252;DHT22;9760;50.944;5.304;2022-09-09T07:57:31;17.70;99.90
19252;DHT22;9760;50.944;5.304;2022-09-09T07:59:57;17.70;99.90
19252;DHT22;9760;50.944;5.304;2022-09-09T08:02:24;17.60;99.90
19252;DHT22;9760;50.944;5.304;2022-09-09T08:04:51;17.40;99.90
19252;DHT22;9760;50.944;5.304;2022-09-09T08:07:17;17.40;99.90
19252;DHT22;9760;50.944;5.304;2022-09-09T08:09:42;17.40;99.90
19252;DHT22;9760;50.944;5.304;2022-09-09T08:12:09;17.30;99.90
19252;DHT22;9760;50.944;5.304;2022-09-09T08:14:36;17.30;99.90
19252;DHT22;9760;50.944;5.304;2022-09-09T08:17:02;17.40;99.90
19252;DHT22;9760;50.944;5.304;2022-09-09T08:19:27;17.20;99.90
19252;DHT22;9760;50.944;5.304;2022-09-09T08:21:55;17.20;99.90
19252;DHT22;9760;50.944;5.304;2022-09-09T08:24:21;17.20;99.90
19252;DHT22;9760;50.944;5.304;2022-09-09T08:26:49;17.30;99.90
19252;DHT22;9760;50.944;5.304;2022-09-09T08:29:15;17.30;99.90
19252;DHT22;9760;50.944;5.304;2022-09-09T08:31:45;17.20;99.90
19252;DHT22;9760;50.944;5.304;2022-09-09T08:34:11;17.30;99.90
19252;DHT22;9760;50.944;5.304;2022-09-09T08:36:43;17.30;99.90
19252;DHT22;9760;50.944;5.304;2022-09-09T08:39:10;17.30;99.90
19252;DHT22;9760;50.944;5.304;2022-09-09T08:44:49;17.30;99.90
19252;DHT22;9760;50.944;5.304;2022-09-09T08:47:34;17.30;99.90
19252;DHT22;9760;50.944;5.304;2022-09-09T08:53:08;17.30;99.90
19252;DHT22;9760;50.944;5.304;2022-09-09T09:01:02;17.20;99.90
19252;DHT22;9760;50.944;5.304;2022-09-09T09:03:47;17.10;99.90
19252;DHT22;9760;50.944;5.304;2022-09-09T09:11:55;17.20;99.90
19252;DHT22;9760;50.944;5.304;2022-09-09T09:14:30;17.20;99.90
19252;DHT22;9760;50.944;5.304;2022-09-09T09:17:23;17.20;99.90
19252;DHT22;9760;50.944;5.304;2022-09-09T09:19:49;17.30;99.90
19252;DHT22;9760;50.944;5.304;2022-09-09T09:25:03;17.40;99.90
19252;DHT22;9760;50.944;5.304;2022-09-09T09:27:44;17.60;99.90
19252;DHT22;9760;50.944;5.304;2022-09-09T09:30:18;17.70;99.90
19252;DHT22;9760;50.944;5.304;2022-09-09T09:33:05;17.70;99.90
19252;DHT22;9760;50.944;5.304;2022-09-09T09:35:34;17.70;99.90
19252;DHT22;9760;50.944;5.304;2022-09-09T09:37:59;17.70;99.90
19252;DHT22;9760;50.944;5.304;2022-09-09T09:40:26;17.80;99.90
19252;DHT22;9760;50.944;5.304;2022-09-09T09:42:53;18.00;99.90
19252;DHT22;9760;50.944;5.304;2022-09-09T09:48:04;18.00;99.90
19252;DHT22;9760;50.944;5.304;2022-09-09T09:50:32;18.00;99.90
19252;DHT22;9760;50.944;5.304;2022-09-09T09:53:04;18.00;99.90
19252;DHT22;9760;50.944;5.304;2022-09-09T09:55:32;18.00;99.90
19252;DHT22;9760;50.944;5.304;2022-09-09T09:58:06;17.90;99.90
19252;DHT22;9760;50.944;5.304;2022-09-09T10:00:32;17.80;99.90
19252;DHT22;9760;50.944;5.304;2022-09-09T10:03:00;17.50;99.90
19252;DHT22;9760;50.944;5.304;2022-09-09T10:05:30;17.20;99.90
19252;DHT22;9760;50.944;5.304;2022-09-09T10:08:16;16.70;99.90
19252;DHT22;9760;50.944;5.304;2022-09-09T10:21:53;16.30;99.90
19252;DHT22;9760;50.944;5.304;2022-09-09T10:38:17;16.00;99.90
19252;DHT22;9760;50.944;5.304;2022-09-09T10:40:46;15.80;99.90
19252;DHT22;9760;50.944;5.304;2022-09-09T10:57:41;16.20;99.90
19252;DHT22;9760;50.944;5.304;2022-09-09T11:00:20;16.50;99.90
19252;DHT22;9760;50.944;5.304;2022-09-09T11:02:58;16.70;99.90
19252;DHT22;9760;50.944;5.304;2022-09-09T11:05:46;16.90;99.90
19252;DHT22;9760;50.944;5.304;2022-09-09T11:08:21;17.00;99.90
19252;DHT22;9760;50.944;5.304;2022-09-09T11:19:15;17.00;99.90
19252;DHT22;9760;50.944;5.304;2022-09-09T11:21:48;17.10;99.90
19252;DHT22;9760;50.944;5.304;2022-09-09T11:26:57;17.10;99.90
19252;DHT22;9760;50.944;5.304;2022-09-09T11:40:35;17.80;99.90
19252;DHT22;9760;50.944;5.304;2022-09-09T11:43:03;17.90;99.90
19252;DHT22;9760;50.944;5.304;2022-09-09T11:45:30;17.80;99.90
19252;DHT22;9760;50.944;5.304;2022-09-09T11:47:58;17.70;99.90
19252;DHT22;9760;50.944;5.304;2022-09-09T11:52:50;17.70;99.90
19252;DHT22;9760;50.944;5.304;2022-09-09T11:58:04;17.60;99.90
19252;DHT22;9760;50.944;5.304;2022-09-09T12:03:01;17.70;99.90
19252;DHT22;9760;50.944;5.304;2022-09-09T12:05:39;17.70;99.90
19252;DHT22;9760;50.944;5.304;2022-09-09T12:08:06;17.60;99.90
19252;DHT22;9760;50.944;5.304;2022-09-09T12:10:39;17.60;99.90
19252;DHT22;9760;50.944;5.304;2022-09-09T12:15:50;17.70;99.90
19252;DHT22;9760;50.944;5.304;2022-09-09T12:18:35;17.60;99.90
19252;DHT22;9760;50.944;5.304;2022-09-09T12:21:11;17.40;99.90
19252;DHT22;9760;50.944;5.304;2022-09-09T12:23:50;17.40;99.90
19252;DHT22;9760;50.944;5.304;2022-09-09T12:26:27;17.30;99.90
19252;DHT22;9760;50.944;5.304;2022-09-09T12:34:42;17.40;99.90
19252;DHT22;9760;50.944;5.304;2022-09-09T12:37:37;17.60;99.90
19252;DHT22;9760;50.944;5.304;2022-09-09T12:40:14;17.80;99.90
19252;DHT22;9760;50.944;5.304;2022-09-09T12:42:43;18.00;99.90
19252;DHT22;9760;50.944;5.304;2022-09-09T12:45:20;18.30;99.90
19252;DHT22;9760;50.944;5.304;2022-09-09T12:48:03;18.50;99.90
19252;DHT22;9760;50.944;5.304;2022-09-09T12:50:32;18.70;99.90
19252;DHT22;9760;50.944;5.304;2022-09-09T12:53:01;18.70;99.90
19252;DHT22;9760;50.944;5.304;2022-09-09T12:55:32;18.80;99.90
19252;DHT22;9760;50.944;5.304;2022-09-09T12:58:04;18.80;99.90
19252;DHT22;9760;50.944;5.304;2022-09-09T13:00:33;19.10;99.90
19252;DHT22;9760;50.944;5.304;2022-09-09T13:03:01;19.20;99.90
19252;DHT22;9760;50.944;5.304;2022-09-09T13:05:35;19.00;99.90
19252;DHT22;9760;50.944;5.304;2022-09-09T13:08:04;19.00;99.90
19252;DHT22;9760;50.944;5.304;2022-09-09T13:10:36;19.30;99.90
19252;DHT22;9760;50.944;5.304;2022-09-09T13:13:05;19.30;99.90
19252;DHT22;9760;50.944;5.304;2022-09-09T13:15:38;19.40;99.90
19252;DHT22;9760;50.944;5.304;2022-09-09T13:18:10;19.30;99.90
19252;DHT22;9760;50.944;5.304;2022-09-09T13:20:36;19.40;99.90
19252;DHT22;9760;50.944;5.304;2022-09-09T13:23:02;19.50;99.90
19252;DHT22;9760;50.944;5.304;2022-09-09T13:25:28;19.50;99.90
19252;DHT22;9760;50.944;5.304;2022-09-09T13:28:05;19.40;99.90
19252;DHT22;9760;50.944;5.304;2022-09-09T13:30:58;19.30;99.90
19252;DHT22;9760;50.944;5.304;2022-09-09T13:33:33;19.20;99.90
19252;DHT22;9760;50.944;5.304;2022-09-09T13:36:07;19.20;99.90
19252;DHT22;9760;50.944;5.304;2022-09-09T13:38:40;19.30;99.90
19252;DHT22;9760;50.944;5.304;2022-09-09T13:41:08;19.40;99.90
19252;DHT22;9760;50.944;5.304;2022-09-09T13:43:43;19.50;99.90
19252;DHT22;9760;50.944;5.304;2022-09-09T13:46:26;19.60;99.90
19252;DHT22;9760;50.944;5.304;2022-09-09T13:48:57;19.70;99.90
19252;DHT22;9760;50.944;5.304;2022-09-09T13:51:33;19.50;99.90
19252;DHT22;9760;50.944;5.304;2022-09-09T13:53:59;19.60;99.90
19252;DHT22;9760;50.944;5.304;2022-09-09T13:56:26;19.70;99.90
19252;DHT22;9760;50.944;5.304;2022-09-09T13:58:51;19.70;99.90
19252;DHT22;9760;50.944;5.304;2022-09-09T14:01:17;19.90;99.90
19252;DHT22;9760;50.944;5.304;2022-09-09T14:03:42;20.20;99.90
19252;DHT22;9760;50.944;5.304;2022-09-09T14:06:09;20.00;99.90
19252;DHT22;9760;50.944;5.304;2022-09-09T14:08:35;19.90;99.90
19252;DHT22;9760;50.944;5.304;2022-09-09T14:11:03;19.80;99.90
19252;DHT22;9760;50.944;5.304;2022-09-09T14:13:29;19.70;99.90
19252;DHT22;9760;50.944;5.304;2022-09-09T14:15:55;19.80;99.90
19252;DHT22;9760;50.944;5.304;2022-09-09T14:18:20;19.70;99.90
19252;DHT22;9760;50.944;5.304;2022-09-09T14:20:47;19.80;99.90
19252;DHT22;9760;50.944;5.304;2022-09-09T14:23:13;19.80;99.90
19252;DHT22;9760;50.944;5.304;2022-09-09T14:25:42;19.90;99.90
19252;DHT22;9760;50.944;5.304;2022-09-09T14:28:09;19.90;99.90
19252;DHT22;9760;50.944;5.304;2022-09-09T14:30:37;19.80;99.90
19252;DHT22;9760;50.944;5.304;2022-09-09T14:33:03;19.80;99.90
19252;DHT22;9760;50.944;5.304;2022-09-09T14:35:29;19.90;99.90
19252;DHT22;9760;50.944;5.304;2022-09-09T14:37:55;20.20;99.90
19252;DHT22;9760;50.944;5.304;2022-09-09T14:40:21;20.20;99.90
19252;DHT22;9760;50.944;5.304;2022-09-09T14:42:48;20.10;99.90
19252;DHT22;9760;50.944;5.304;2022-09-09T14:45:14;20.20;99.90
19252;DHT22;9760;50.944;5.304;2022-09-09T14:47:39;20.50;99.90
19252;DHT22;9760;50.944;5.304;2022-09-09T14:50:05;20.70;99.90
19252;DHT22;9760;50.944;5.304;2022-09-09T14:52:31;20.70;99.90
19252;DHT22;9760;50.944;5.304;2022-09-09T14:54:57;20.70;99.90
19252;DHT22;9760;50.944;5.304;2022-09-09T14:57:22;20.50;99.90
19252;DHT22;9760;50.944;5.304;2022-09-09T14:59:48;20.60;99.90
19252;DHT22;9760;50.944;5.304;2022-09-09T15:02:15;20.60;99.90
19252;DHT22;9760;50.944;5.304;2022-09-09T15:04:41;20.50;99.90
19252;DHT22;9760;50.944;5.304;2022-09-09T15:07:08;20.40;99.90
19252;DHT22;9760;50.944;5.304;2022-09-09T15:09:33;20.50;99.90
19252;DHT22;9760;50.944;5.304;2022-09-09T15:11:59;20.60;99.90
19252;DHT22;9760;50.944;5.304;2022-09-09T15:14:26;20.70;99.90
19252;DHT22;9760;50.944;5.304;2022-09-09T15:16:51;20.70;99.90
19252;DHT22;9760;50.944;5.304;2022-09-09T15:19:17;20.80;99.90
19252;DHT22;9760;50.944;5.304;2022-09-09T15:21:42;20.80;99.90
19252;DHT22;9760;50.944;5.304;2022-09-09T15:24:08;20.70;99.90
19252;DHT22;9760;50.944;5.304;2022-09-09T15:26:34;20.60;99.90
19252;DHT22;9760;50.944;5.304;2022-09-09T15:29:01;20.50;99.90
19252;DHT22;9760;50.944;5.304;2022-09-09T15:31:30;20.20;99.90
19252;DHT22;9760;50.944;5.304;2022-09-09T15:33:58;20.20;99.90
19252;DHT22;9760;50.944;5.304;2022-09-09T15:36:33;20.20;99.90
19252;DHT22;9760;50.944;5.304;2022-09-09T15:38:59;20.30;99.90
19252;DHT22;9760;50.944;5.304;2022-09-09T15:41:26;20.40;99.90
19252;DHT22;9760;50.944;5.304;2022-09-09T15:43:53;20.50;99.90
19252;DHT22;9760;50.944;5.304;2022-09-09T15:46:24;20.70;99.90
19252;DHT22;9760;50.944;5.304;2022-09-09T15:48:52;20.70;99.90
19252;DHT22;9760;50.944;5.304;2022-09-09T15:51:17;20.70;99.90
19252;DHT22;9760;50.944;5.304;2022-09-09T15:53:44;20.70;99.90
19252;DHT22;9760;50.944;5.304;2022-09-09T15:56:10;20.80;99.90
19252;DHT22;9760;50.944;5.304;2022-09-09T15:58:36;21.00;99.90
19252;DHT22;9760;50.944;5.304;2022-09-09T16:01:06;21.00;99.90
19252;DHT22;9760;50.944;5.304;2022-09-09T16:03:37;21.00;99.90
19252;DHT22;9760;50.944;5.304;2022-09-09T16:06:04;20.70;99.90
19252;DHT22;9760;50.944;5.304;2022-09-09T16:08:34;20.60;99.90
19252;DHT22;9760;50.944;5.304;2022-09-09T16:11:07;20.30;99.90
19252;DHT22;9760;50.944;5.304;2022-09-09T16:13:36;20.30;99.90
19252;DHT22;9760;50.944;5.304;2022-09-09T16:16:03;20.10;99.90
19252;DHT22;9760;50.944;5.304;2022-09-09T16:18:37;19.90;99.90
19252;DHT22;9760;50.944;5.304;2022-09-09T16:21:04;20.00;99.90
19252;DHT22;9760;50.944;5.304;2022-09-09T16:23:31;19.80;99.90
19252;DHT22;9760;50.944;5.304;2022-09-09T16:25:57;19.80;99.90
19252;DHT22;9760;50.944;5.304;2022-09-09T16:28:23;19.70;99.90
19252;DHT22;9760;50.944;5.304;2022-09-09T16:30:49;19.80;99.90
19252;DHT22;9760;50.944;5.304;2022-09-09T16:33:16;19.80;99.90
19252;DHT22;9760;50.944;5.304;2022-09-09T16:35:42;19.60;99.90
19252;DHT22;9760;50.944;5.304;2022-09-09T16:38:08;19.50;99.90
19252;DHT22;9760;50.944;5.304;2022-09-09T16:40:34;19.50;99.90
19252;DHT22;9760;50.944;5.304;2022-09-09T16:43:00;19.50;99.90
19252;DHT22;9760;50.944;5.304;2022-09-09T16:45:26;20.00;99.90
19252;DHT22;9760;50.944;5.304;2022-09-09T16:47:52;21.20;99.90
19252;DHT22;9760;50.944;5.304;2022-09-09T16:50:19;22.40;99.90
19252;DHT22;9760;50.944;5.304;2022-09-09T16:52:45;22.70;99.90
19252;DHT22;9760;50.944;5.304;2022-09-09T16:55:10;21.30;99.90
19252;DHT22;9760;50.944;5.304;2022-09-09T16:57:36;20.20;99.90
19252;DHT22;9760;50.944;5.304;2022-09-09T17:00:03;19.80;99.90
19252;DHT22;9760;50.944;5.304;2022-09-09T17:02:31;19.40;99.90
19252;DHT22;9760;50.944;5.304;2022-09-09T17:04:56;19.30;99.90
19252;DHT22;9760;50.944;5.304;2022-09-09T17:07:22;19.20;99.90
19252;DHT22;9760;50.944;5.304;2022-09-09T17:09:48;19.10;99.90
19252;DHT22;9760;50.944;5.304;2022-09-09T17:12:14;19.10;99.90
19252;DHT22;9760;50.944;5.304;2022-09-09T17:14:41;19.00;99.90
19252;DHT22;9760;50.944;5.304;2022-09-09T17:17:07;18.90;99.90
19252;DHT22;9760;50.944;5.304;2022-09-09T17:19:33;18.90;99.90
19252;DHT22;9760;50.944;5.304;2022-09-09T17:21:58;18.80;99.90
19252;DHT22;9760;50.944;5.304;2022-09-09T17:24:26;18.80;99.90
19252;DHT22;9760;50.944;5.304;2022-09-09T17:26:54;18.70;99.90
19252;DHT22;9760;50.944;5.304;2022-09-09T17:29:21;18.70;99.90
19252;DHT22;9760;50.944;5.304;2022-09-09T17:31:46;18.70;99.90
19252;DHT22;9760;50.944;5.304;2022-09-09T17:34:12;18.70;99.90
19252;DHT22;9760;50.944;5.304;2022-09-09T17:36:38;18.70;99.90
19252;DHT22;9760;50.944;5.304;2022-09-09T17:39:04;18.70;99.90
19252;DHT22;9760;50.944;5.304;2022-09-09T17:41:36;18.70;99.90
19252;DHT22;9760;50.944;5.304;2022-09-09T17:44:03;18.70;99.90
19252;DHT22;9760;50.944;5.304;2022-09-09T17:46:31;18.60;99.90
19252;DHT22;9760;50.944;5.304;2022-09-09T17:49:04;18.50;99.90
19252;DHT22;9760;50.944;5.304;2022-09-09T17:51:31;18.40;99.90
19252;DHT22;9760;50.944;5.304;2022-09-09T17:54:03;18.10;99.90
19252;DHT22;9760;50.944;5.304;2022-09-09T17:56:31;17.60;99.90
19252;DHT22;9760;50.944;5.304;2022-09-09T17:58:58;17.40;99.90
19252;DHT22;9760;50.944;5.304;2022-09-09T18:01:26;17.20;99.90
19252;DHT22;9760;50.944;5.304;2022-09-09T18:03:56;17.10;99.90
19252;DHT22;9760;50.944;5.304;2022-09-09T18:06:26;17.00;99.90
19252;DHT22;9760;50.944;5.304;2022-09-09T18:08:58;16.90;99.90
19252;DHT22;9760;50.944;5.304;2022-09-09T18:11:26;16.90;99.90
19252;DHT22;9760;50.944;5.304;2022-09-09T18:13:55;16.90;99.90
19252;DHT22;9760;50.944;5.304;2022-09-09T18:16:22;16.90;99.90
19252;DHT22;9760;50.944;5.304;2022-09-09T18:18:49;16.80;99.90
19252;DHT22;9760;50.944;5.304;2022-09-09T18:21:15;16.80;99.90
19252;DHT22;9760;50.944;5.304;2022-09-09T18:23:42;16.80;99.90
19252;DHT22;9760;50.944;5.304;2022-09-09T18:26:15;16.70;99.90